sensor_id;sensor_type;location;lat;lon;timestamp;P1;durP1;ratioP1;P2;durP2;ratioP2
38264;SDS011;24062;47.480;8.768;2023-05-23T00:01:58;10.43;;;8.70;;
38264;SDS011;24062;47.480;8.768;2023-05-23T00:04:27;9.50;;;8.70;;
38264;SDS011;24062;47.480;8.768;2023-05-23T00:06:54;9.20;;;8.40;;
38264;SDS011;24062;47.480;8.768;2023-05-23T00:09:21;10.43;;;9.57;;
38264;SDS011;24062;47.480;8.768;2023-05-23T00:11:48;8.87;;;8.07;;
38264;SDS011;24062;47.480;8.768;2023-05-23T00:14:15;10.00;;;9.10;;
38264;SDS011;24062;47.480;8.768;2023-05-23T00:16:43;9.93;;;8.93;;
38264;SDS011;24062;47.480;8.768;2023-05-23T00:19:13;9.20;;;8.40;;
38264;SDS011;24062;47.480;8.768;2023-05-23T00:21:42;8.80;;;8.03;;
38264;SDS011;24062;47.480;8.768;2023-05-23T00:24:12;12.60;;;9.77;;
38264;SDS011;24062;47.480;8.768;2023-05-23T00:26:42;10.37;;;9.43;;
38264;SDS011;24062;47.480;8.768;2023-05-23T00:29:09;9.33;;;8.63;;
38264;SDS011;24062;47.480;8.768;2023-05-23T00:31:39;10.80;;;8.93;;
38264;SDS011;24062;47.480;8.768;2023-05-23T00:34:07;9.20;;;8.47;;
38264;SDS011;24062;47.480;8.768;2023-05-23T00:36:34;9.33;;;7.83;;
38264;SDS011;24062;47.480;8.768;2023-05-23T00:39:03;17.80;;;9.40;;
38264;SDS011;24062;47.480;8.768;2023-05-23T00:41:30;10.30;;;8.53;;
38264;SDS011;24062;47.480;8.768;2023-05-23T00:43:57;9.77;;;8.87;;
38264;SDS011;24062;47.480;8.768;2023-05-23T00:46:24;9.10;;;8.13;;
38264;SDS011;24062;47.480;8.768;2023-05-23T00:48:52;9.60;;;8.70;;
38264;SDS011;24062;47.480;8.768;2023-05-23T00:51:20;9.80;;;8.80;;
38264;SDS011;24062;47.480;8.768;2023-05-23T00:53:47;11.03;;;9.70;;
38264;SDS011;24062;47.480;8.768;2023-05-23T00:56:16;9.70;;;8.80;;
38264;SDS011;24062;47.480;8.768;2023-05-23T00:58:44;9.40;;;8.40;;
38264;SDS011;24062;47.480;8.768;2023-05-23T01:01:11;10.50;;;9.50;;
38264;SDS011;24062;47.480;8.768;2023-05-23T01:03:40;10.30;;;9.30;;
38264;SDS011;24062;47.480;8.768;2023-05-23T01:06:09;10.67;;;9.57;;
38264;SDS011;24062;47.480;8.768;2023-05-23T01:08:36;9.90;;;9.00;;
38264;SDS011;24062;47.480;8.768;2023-05-23T01:11:06;11.20;;;8.80;;
38264;SDS011;24062;47.480;8.768;2023-05-23T01:13:42;9.37;;;8.60;;
38264;SDS011;24062;47.480;8.768;2023-05-23T01:16:16;10.20;;;9.20;;
38264;SDS011;24062;47.480;8.768;2023-05-23T01:18:51;13.33;;;9.13;;
38264;SDS011;24062;47.480;8.768;2023-05-23T01:21:26;10.73;;;9.63;;
38264;SDS011;24062;47.480;8.768;2023-05-23T01:24:02;9.77;;;8.97;;
38264;SDS011;24062;47.480;8.768;2023-05-23T01:26:55;10.70;;;9.70;;
38264;SDS011;24062;47.480;8.768;2023-05-23T01:29:33;11.23;;;10.10;;
38264;SDS011;24062;47.480;8.768;2023-05-23T01:32:06;11.90;;;10.87;;
38264;SDS011;24062;47.480;8.768;2023-05-23T01:34:35;11.43;;;10.43;;
38264;SDS011;24062;47.480;8.768;2023-05-23T01:37:06;11.83;;;10.63;;
38264;SDS011;24062;47.480;8.768;2023-05-23T01:39:34;10.23;;;9.27;;
38264;SDS011;24062;47.480;8.768;2023-05-23T01:42:01;14.33;;;9.67;;
38264;SDS011;24062;47.480;8.768;2023-05-23T01:44:29;11.17;;;10.17;;
38264;SDS011;24062;47.480;8.768;2023-05-23T01:46:58;10.30;;;9.10;;
38264;SDS011;24062;47.480;8.768;2023-05-23T01:49:28;11.83;;;10.73;;
38264;SDS011;24062;47.480;8.768;2023-05-23T01:51:56;10.93;;;9.87;;
38264;SDS011;24062;47.480;8.768;2023-05-23T01:54:24;10.13;;;9.20;;
38264;SDS011;24062;47.480;8.768;2023-05-23T01:56:53;10.60;;;9.50;;
38264;SDS011;24062;47.480;8.768;2023-05-23T01:59:22;11.70;;;9.83;;
38264;SDS011;24062;47.480;8.768;2023-05-23T02:01:50;10.90;;;9.67;;
38264;SDS011;24062;47.480;8.768;2023-05-23T02:04:17;10.57;;;9.57;;
38264;SDS011;24062;47.480;8.768;2023-05-23T02:06:44;10.93;;;9.47;;
38264;SDS011;24062;47.480;8.768;2023-05-23T02:09:11;10.10;;;9.23;;
38264;SDS011;24062;47.480;8.768;2023-05-23T02:11:38;10.00;;;9.03;;
38264;SDS011;24062;47.480;8.768;2023-05-23T02:14:05;10.03;;;9.20;;
38264;SDS011;24062;47.480;8.768;2023-05-23T02:16:32;9.97;;;8.97;;
38264;SDS011;24062;47.480;8.768;2023-05-23T02:19:01;14.77;;;9.60;;
38264;SDS011;24062;47.480;8.768;2023-05-23T02:21:29;11.27;;;10.10;;
38264;SDS011;24062;47.480;8.768;2023-05-23T02:23:56;13.30;;;9.57;;
38264;SDS011;24062;47.480;8.768;2023-05-23T02:26:23;14.97;;;9.97;;
38264;SDS011;24062;47.480;8.768;2023-05-23T02:28:51;10.27;;;9.27;;
38264;SDS011;24062;47.480;8.768;2023-05-23T02:31:19;10.10;;;9.13;;
38264;SDS011;24062;47.480;8.768;2023-05-23T02:33:46;10.00;;;9.10;;
38264;SDS011;24062;47.480;8.768;2023-05-23T02:36:14;10.70;;;9.60;;
38264;SDS011;24062;47.480;8.768;2023-05-23T02:38:41;11.10;;;9.97;;
38264;SDS011;24062;47.480;8.768;2023-05-23T02:41:08;10.00;;;9.00;;
38264;SDS011;24062;47.480;8.768;2023-05-23T02:43:35;14.00;;;8.97;;
38264;SDS011;24062;47.480;8.768;2023-05-23T02:46:02;11.33;;;9.77;;
38264;SDS011;24062;47.480;8.768;2023-05-23T02:48:29;11.30;;;10.20;;
38264;SDS011;24062;47.480;8.768;2023-05-23T02:50:56;12.03;;;10.73;;
38264;SDS011;24062;47.480;8.768;2023-05-23T02:53:24;10.53;;;9.43;;
38264;SDS011;24062;47.480;8.768;2023-05-23T02:55:51;10.20;;;9.20;;
38264;SDS011;24062;47.480;8.768;2023-05-23T02:58:18;10.70;;;9.77;;
38264;SDS011;24062;47.480;8.768;2023-05-23T03:00:45;15.07;;;10.20;;
38264;SDS011;24062;47.480;8.768;2023-05-23T03:03:12;10.30;;;9.40;;
38264;SDS011;24062;47.480;8.768;2023-05-23T03:05:40;10.80;;;9.70;;
38264;SDS011;24062;47.480;8.768;2023-05-23T03:08:07;11.30;;;10.10;;
38264;SDS011;24062;47.480;8.768;2023-05-23T03:10:36;11.07;;;9.40;;
38264;SDS011;24062;47.480;8.768;2023-05-23T03:13:03;10.07;;;8.90;;
38264;SDS011;24062;47.480;8.768;2023-05-23T03:15:30;12.73;;;8.97;;
38264;SDS011;24062;47.480;8.768;2023-05-23T03:17:56;10.40;;;9.30;;
38264;SDS011;24062;47.480;8.768;2023-05-23T03:20:23;9.97;;;9.13;;
38264;SDS011;24062;47.480;8.768;2023-05-23T03:22:50;9.93;;;9.10;;
38264;SDS011;24062;47.480;8.768;2023-05-23T03:25:17;10.83;;;8.97;;
38264;SDS011;24062;47.480;8.768;2023-05-23T03:27:45;9.87;;;8.90;;
38264;SDS011;24062;47.480;8.768;2023-05-23T03:30:12;10.13;;;9.13;;
38264;SDS011;24062;47.480;8.768;2023-05-23T03:32:39;11.77;;;9.43;;
38264;SDS011;24062;47.480;8.768;2023-05-23T03:35:07;10.63;;;9.53;;
38264;SDS011;24062;47.480;8.768;2023-05-23T03:37:34;10.50;;;9.60;;
38264;SDS011;24062;47.480;8.768;2023-05-23T03:40:01;11.17;;;10.17;;
38264;SDS011;24062;47.480;8.768;2023-05-23T03:42:28;11.23;;;9.90;;
38264;SDS011;24062;47.480;8.768;2023-05-23T03:44:56;10.70;;;9.30;;
38264;SDS011;24062;47.480;8.768;2023-05-23T03:47:23;13.33;;;9.77;;
38264;SDS011;24062;47.480;8.768;2023-05-23T03:49:50;10.27;;;9.17;;
38264;SDS011;24062;47.480;8.768;2023-05-23T03:52:17;14.83;;;8.47;;
38264;SDS011;24062;47.480;8.768;2023-05-23T03:54:44;10.47;;;9.43;;
38264;SDS011;24062;47.480;8.768;2023-05-23T03:57:11;12.97;;;9.50;;
38264;SDS011;24062;47.480;8.768;2023-05-23T03:59:38;10.70;;;9.70;;
38264;SDS011;24062;47.480;8.768;2023-05-23T04:02:06;11.13;;;10.00;;
38264;SDS011;24062;47.480;8.768;2023-05-23T04:04:33;10.43;;;9.27;;
38264;SDS011;24062;47.480;8.768;2023-05-23T04:07:00;13.20;;;9.57;;
38264;SDS011;24062;47.480;8.768;2023-05-23T04:09:29;10.40;;;8.60;;
38264;SDS011;24062;47.480;8.768;2023-05-23T04:11:56;9.03;;;8.33;;
38264;SDS011;24062;47.480;8.768;2023-05-23T04:14:23;9.53;;;8.57;;
38264;SDS011;24062;47.480;8.768;2023-05-23T04:16:50;11.23;;;9.37;;
38264;SDS011;24062;47.480;8.768;2023-05-23T04:19:18;9.90;;;8.90;;
38264;SDS011;24062;47.480;8.768;2023-05-23T04:21:45;9.30;;;8.50;;
38264;SDS011;24062;47.480;8.768;2023-05-23T04:24:12;10.40;;;9.40;;
38264;SDS011;24062;47.480;8.768;2023-05-23T04:26:39;9.93;;;8.97;;
38264;SDS011;24062;47.480;8.768;2023-05-23T04:29:06;8.93;;;8.23;;
38264;SDS011;24062;47.480;8.768;2023-05-23T04:31:36;10.20;;;9.20;;
38264;SDS011;24062;47.480;8.768;2023-05-23T04:34:03;9.33;;;8.43;;
38264;SDS011;24062;47.480;8.768;2023-05-23T04:36:31;9.53;;;8.73;;
38264;SDS011;24062;47.480;8.768;2023-05-23T04:39:02;14.20;;;9.13;;
38264;SDS011;24062;47.480;8.768;2023-05-23T04:41:29;9.27;;;8.30;;
38264;SDS011;24062;47.480;8.768;2023-05-23T04:43:56;9.37;;;8.20;;
38264;SDS011;24062;47.480;8.768;2023-05-23T04:46:23;9.03;;;8.37;;
38264;SDS011;24062;47.480;8.768;2023-05-23T04:48:51;9.70;;;8.67;;
38264;SDS011;24062;47.480;8.768;2023-05-23T04:51:19;9.80;;;9.00;;
38264;SDS011;24062;47.480;8.768;2023-05-23T04:53:48;8.80;;;7.90;;
38264;SDS011;24062;47.480;8.768;2023-05-23T04:56:15;10.40;;;9.50;;
38264;SDS011;24062;47.480;8.768;2023-05-23T04:58:44;8.73;;;7.93;;
38264;SDS011;24062;47.480;8.768;2023-05-23T05:01:12;11.60;;;8.47;;
38264;SDS011;24062;47.480;8.768;2023-05-23T05:03:39;9.50;;;8.60;;
38264;SDS011;24062;47.480;8.768;2023-05-23T05:06:06;10.50;;;8.60;;
38264;SDS011;24062;47.480;8.768;2023-05-23T05:08:33;9.70;;;8.47;;
38264;SDS011;24062;47.480;8.768;2023-05-23T05:11:02;10.10;;;8.90;;
38264;SDS011;24062;47.480;8.768;2023-05-23T05:13:29;10.20;;;9.20;;
38264;SDS011;24062;47.480;8.768;2023-05-23T05:15:56;8.60;;;7.80;;
38264;SDS011;24062;47.480;8.768;2023-05-23T05:18:24;9.00;;;8.30;;
38264;SDS011;24062;47.480;8.768;2023-05-23T05:20:52;9.40;;;7.60;;
38264;SDS011;24062;47.480;8.768;2023-05-23T05:23:20;8.90;;;8.03;;
38264;SDS011;24062;47.480;8.768;2023-05-23T05:25:53;10.27;;;9.40;;
38264;SDS011;24062;47.480;8.768;2023-05-23T05:28:22;9.40;;;8.60;;
38264;SDS011;24062;47.480;8.768;2023-05-23T05:30:49;9.90;;;9.00;;
38264;SDS011;24062;47.480;8.768;2023-05-23T05:33:18;10.30;;;8.10;;
38264;SDS011;24062;47.480;8.768;2023-05-23T05:35:47;8.70;;;8.00;;
38264;SDS011;24062;47.480;8.768;2023-05-23T05:38:15;9.03;;;8.23;;
38264;SDS011;24062;47.480;8.768;2023-05-23T05:40:42;9.57;;;8.27;;
38264;SDS011;24062;47.480;8.768;2023-05-23T05:43:09;8.57;;;7.97;;
38264;SDS011;24062;47.480;8.768;2023-05-23T05:45:37;10.60;;;9.30;;
38264;SDS011;24062;47.480;8.768;2023-05-23T05:48:05;8.80;;;8.20;;
38264;SDS011;24062;47.480;8.768;2023-05-23T05:50:31;9.30;;;8.43;;
38264;SDS011;24062;47.480;8.768;2023-05-23T05:52:58;9.27;;;8.37;;
38264;SDS011;24062;47.480;8.768;2023-05-23T05:55:25;9.47;;;8.63;;
38264;SDS011;24062;47.480;8.768;2023-05-23T05:57:52;9.63;;;8.73;;
38264;SDS011;24062;47.480;8.768;2023-05-23T06:00:19;10.40;;;9.50;;
38264;SDS011;24062;47.480;8.768;2023-05-23T06:02:48;10.40;;;8.80;;
38264;SDS011;24062;47.480;8.768;2023-05-23T06:05:15;10.73;;;9.07;;
38264;SDS011;24062;47.480;8.768;2023-05-23T06:07:42;28.20;;;11.47;;
38264;SDS011;24062;47.480;8.768;2023-05-23T06:10:09;24.03;;;9.53;;
38264;SDS011;24062;47.480;8.768;2023-05-23T06:12:37;90.90;;;16.50;;
38264;SDS011;24062;47.480;8.768;2023-05-23T06:15:05;43.70;;;13.23;;
38264;SDS011;24062;47.480;8.768;2023-05-23T06:17:33;88.33;;;16.60;;
38264;SDS011;24062;47.480;8.768;2023-05-23T06:20:01;30.33;;;12.10;;
38264;SDS011;24062;47.480;8.768;2023-05-23T06:22:29;19.80;;;12.50;;
38264;SDS011;24062;47.480;8.768;2023-05-23T06:24:56;33.43;;;12.47;;
38264;SDS011;24062;47.480;8.768;2023-05-23T06:27:23;42.73;;;12.70;;
38264;SDS011;24062;47.480;8.768;2023-05-23T06:29:49;12.40;;;11.10;;
38264;SDS011;24062;47.480;8.768;2023-05-23T06:32:16;18.37;;;11.27;;
38264;SDS011;24062;47.480;8.768;2023-05-23T06:34:43;14.70;;;11.93;;
38264;SDS011;24062;47.480;8.768;2023-05-23T06:37:11;14.33;;;10.93;;
38264;SDS011;24062;47.480;8.768;2023-05-23T06:39:38;14.10;;;11.27;;
38264;SDS011;24062;47.480;8.768;2023-05-23T06:42:05;16.70;;;11.57;;
38264;SDS011;24062;47.480;8.768;2023-05-23T06:44:33;14.33;;;11.30;;
38264;SDS011;24062;47.480;8.768;2023-05-23T06:46:59;16.97;;;11.97;;
38264;SDS011;24062;47.480;8.768;2023-05-23T06:49:26;12.83;;;11.63;;
38264;SDS011;24062;47.480;8.768;2023-05-23T06:51:53;11.90;;;10.77;;
38264;SDS011;24062;47.480;8.768;2023-05-23T06:54:22;12.67;;;11.40;;
38264;SDS011;24062;47.480;8.768;2023-05-23T06:56:49;14.07;;;12.30;;
38264;SDS011;24062;47.480;8.768;2023-05-23T06:59:15;13.53;;;12.13;;
38264;SDS011;24062;47.480;8.768;2023-05-23T07:01:42;13.80;;;12.40;;
38264;SDS011;24062;47.480;8.768;2023-05-23T07:04:09;15.60;;;14.00;;
38264;SDS011;24062;47.480;8.768;2023-05-23T07:06:37;14.53;;;12.97;;
38264;SDS011;24062;47.480;8.768;2023-05-23T07:09:04;15.47;;;12.80;;
38264;SDS011;24062;47.480;8.768;2023-05-23T07:11:33;14.37;;;13.00;;
38264;SDS011;24062;47.480;8.768;2023-05-23T07:14:00;16.57;;;13.10;;
38264;SDS011;24062;47.480;8.768;2023-05-23T07:16:27;17.80;;;14.33;;
38264;SDS011;24062;47.480;8.768;2023-05-23T07:18:54;15.63;;;14.10;;
38264;SDS011;24062;47.480;8.768;2023-05-23T07:21:21;18.00;;;14.77;;
38264;SDS011;24062;47.480;8.768;2023-05-23T07:23:48;18.23;;;14.27;;
38264;SDS011;24062;47.480;8.768;2023-05-23T07:26:15;17.33;;;14.83;;
38264;SDS011;24062;47.480;8.768;2023-05-23T07:28:43;23.97;;;15.60;;
38264;SDS011;24062;47.480;8.768;2023-05-23T07:31:10;40.10;;;17.80;;
38264;SDS011;24062;47.480;8.768;2023-05-23T07:33:38;35.77;;;19.90;;
38264;SDS011;24062;47.480;8.768;2023-05-23T07:36:05;35.40;;;17.27;;
38264;SDS011;24062;47.480;8.768;2023-05-23T07:38:32;37.77;;;17.40;;
38264;SDS011;24062;47.480;8.768;2023-05-23T07:40:59;24.13;;;15.83;;
38264;SDS011;24062;47.480;8.768;2023-05-23T07:43:26;17.33;;;15.67;;
38264;SDS011;24062;47.480;8.768;2023-05-23T07:45:54;18.70;;;16.83;;
38264;SDS011;24062;47.480;8.768;2023-05-23T07:48:21;17.13;;;15.00;;
38264;SDS011;24062;47.480;8.768;2023-05-23T07:50:48;18.53;;;15.87;;
38264;SDS011;24062;47.480;8.768;2023-05-23T07:53:19;17.50;;;15.53;;
38264;SDS011;24062;47.480;8.768;2023-05-23T07:55:46;18.50;;;16.60;;
38264;SDS011;24062;47.480;8.768;2023-05-23T07:58:13;23.70;;;16.90;;
38264;SDS011;24062;47.480;8.768;2023-05-23T08:00:40;16.93;;;15.20;;
38264;SDS011;24062;47.480;8.768;2023-05-23T08:03:09;17.77;;;15.60;;
38264;SDS011;24062;47.480;8.768;2023-05-23T08:05:37;33.73;;;16.33;;
38264;SDS011;24062;47.480;8.768;2023-05-23T08:08:04;65.07;;;20.17;;
38264;SDS011;24062;47.480;8.768;2023-05-23T08:10:31;163.30;;;27.07;;
38264;SDS011;24062;47.480;8.768;2023-05-23T08:12:58;201.77;;;30.73;;
38264;SDS011;24062;47.480;8.768;2023-05-23T08:15:30;25.70;;;16.60;;
38264;SDS011;24062;47.480;8.768;2023-05-23T08:17:57;27.53;;;16.60;;
38264;SDS011;24062;47.480;8.768;2023-05-23T08:20:25;26.73;;;15.87;;
38264;SDS011;24062;47.480;8.768;2023-05-23T08:22:56;42.40;;;17.30;;
38264;SDS011;24062;47.480;8.768;2023-05-23T08:25:24;51.90;;;19.33;;
38264;SDS011;24062;47.480;8.768;2023-05-23T08:27:54;323.03;;;40.47;;
38264;SDS011;24062;47.480;8.768;2023-05-23T08:30:22;30.13;;;16.77;;
38264;SDS011;24062;47.480;8.768;2023-05-23T08:32:49;68.77;;;19.57;;
38264;SDS011;24062;47.480;8.768;2023-05-23T08:35:17;21.17;;;16.57;;
38264;SDS011;24062;47.480;8.768;2023-05-23T08:37:46;22.43;;;17.03;;
38264;SDS011;24062;47.480;8.768;2023-05-23T08:40:17;21.03;;;15.63;;
38264;SDS011;24062;47.480;8.768;2023-05-23T08:42:45;20.33;;;16.40;;
38264;SDS011;24062;47.480;8.768;2023-05-23T08:45:12;19.90;;;16.40;;
38264;SDS011;24062;47.480;8.768;2023-05-23T08:47:41;20.87;;;17.10;;
38264;SDS011;24062;47.480;8.768;2023-05-23T08:50:10;20.93;;;16.13;;
38264;SDS011;24062;47.480;8.768;2023-05-23T08:52:41;20.37;;;16.97;;
38264;SDS011;24062;47.480;8.768;2023-05-23T08:55:11;19.60;;;16.20;;
38264;SDS011;24062;47.480;8.768;2023-05-23T08:57:38;21.17;;;17.07;;
38264;SDS011;24062;47.480;8.768;2023-05-23T09:00:08;21.40;;;17.27;;
38264;SDS011;24062;47.480;8.768;2023-05-23T09:02:39;18.37;;;15.70;;
38264;SDS011;24062;47.480;8.768;2023-05-23T09:05:08;22.40;;;17.37;;
38264;SDS011;24062;47.480;8.768;2023-05-23T09:07:35;20.90;;;16.53;;
38264;SDS011;24062;47.480;8.768;2023-05-23T09:10:02;28.47;;;17.73;;
38264;SDS011;24062;47.480;8.768;2023-05-23T09:12:33;29.93;;;17.83;;
38264;SDS011;24062;47.480;8.768;2023-05-23T09:15:01;24.43;;;18.00;;
38264;SDS011;24062;47.480;8.768;2023-05-23T09:17:29;23.70;;;17.50;;
38264;SDS011;24062;47.480;8.768;2023-05-23T09:19:57;21.63;;;17.70;;
38264;SDS011;24062;47.480;8.768;2023-05-23T09:22:24;20.23;;;16.53;;
38264;SDS011;24062;47.480;8.768;2023-05-23T09:24:52;22.90;;;18.17;;
38264;SDS011;24062;47.480;8.768;2023-05-23T09:27:20;24.47;;;17.63;;
38264;SDS011;24062;47.480;8.768;2023-05-23T09:29:49;20.13;;;16.40;;
38264;SDS011;24062;47.480;8.768;2023-05-23T09:32:16;22.10;;;16.93;;
38264;SDS011;24062;47.480;8.768;2023-05-23T09:37:28;24.10;;;17.63;;
38264;SDS011;24062;47.480;8.768;2023-05-23T09:39:57;24.37;;;18.10;;
38264;SDS011;24062;47.480;8.768;2023-05-23T09:42:25;19.00;;;17.10;;
38264;SDS011;24062;47.480;8.768;2023-05-23T09:44:59;16.93;;;14.40;;
38264;SDS011;24062;47.480;8.768;2023-05-23T09:47:26;20.77;;;15.50;;
38264;SDS011;24062;47.480;8.768;2023-05-23T09:49:53;18.50;;;15.03;;
38264;SDS011;24062;47.480;8.768;2023-05-23T09:52:20;19.93;;;15.20;;
38264;SDS011;24062;47.480;8.768;2023-05-23T09:54:47;17.97;;;16.27;;
38264;SDS011;24062;47.480;8.768;2023-05-23T09:57:15;19.33;;;14.50;;
38264;SDS011;24062;47.480;8.768;2023-05-23T09:59:44;17.13;;;13.90;;
38264;SDS011;24062;47.480;8.768;2023-05-23T10:02:22;17.03;;;15.03;;
38264;SDS011;24062;47.480;8.768;2023-05-23T10:05:06;16.30;;;14.17;;
38264;SDS011;24062;47.480;8.768;2023-05-23T10:07:35;16.00;;;11.93;;
38264;SDS011;24062;47.480;8.768;2023-05-23T10:10:03;16.47;;;14.07;;
38264;SDS011;24062;47.480;8.768;2023-05-23T10:12:38;15.77;;;14.17;;
38264;SDS011;24062;47.480;8.768;2023-05-23T10:15:10;15.50;;;13.77;;
38264;SDS011;24062;47.480;8.768;2023-05-23T10:20:28;13.80;;;12.10;;
38264;SDS011;24062;47.480;8.768;2023-05-23T10:22:57;17.93;;;14.27;;
38264;SDS011;24062;47.480;8.768;2023-05-23T10:25:25;14.00;;;12.47;;
38264;SDS011;24062;47.480;8.768;2023-05-23T10:27:53;16.80;;;13.50;;
38264;SDS011;24062;47.480;8.768;2023-05-23T10:30:23;19.20;;;16.10;;
38264;SDS011;24062;47.480;8.768;2023-05-23T10:32:51;16.33;;;14.63;;
38264;SDS011;24062;47.480;8.768;2023-05-23T10:35:21;15.93;;;14.23;;
38264;SDS011;24062;47.480;8.768;2023-05-23T10:37:56;15.23;;;13.73;;
38264;SDS011;24062;47.480;8.768;2023-05-23T10:40:30;15.13;;;13.63;;
38264;SDS011;24062;47.480;8.768;2023-05-23T10:43:04;15.50;;;13.03;;
38264;SDS011;24062;47.480;8.768;2023-05-23T10:45:38;14.93;;;13.50;;
38264;SDS011;24062;47.480;8.768;2023-05-23T10:48:16;16.57;;;14.97;;
38264;SDS011;24062;47.480;8.768;2023-05-23T10:51:01;14.90;;;13.40;;
38264;SDS011;24062;47.480;8.768;2023-05-23T10:53:30;12.80;;;11.57;;
38264;SDS011;24062;47.480;8.768;2023-05-23T10:55:59;12.50;;;11.23;;
38264;SDS011;24062;47.480;8.768;2023-05-23T10:58:28;13.05;;;11.40;;
38264;SDS011;24062;47.480;8.768;2023-05-23T11:00:58;14.32;;;12.93;;
38264;SDS011;24062;47.480;8.768;2023-05-23T11:03:29;13.25;;;11.88;;
38264;SDS011;24062;47.480;8.768;2023-05-23T11:06:01;11.60;;;10.38;;
38264;SDS011;24062;47.480;8.768;2023-05-23T11:08:36;12.25;;;10.45;;
38264;SDS011;24062;47.480;8.768;2023-05-23T11:11:04;45.97;;;16.35;;
38264;SDS011;24062;47.480;8.768;2023-05-23T11:16:28;14.73;;;12.70;;
38264;SDS011;24062;47.480;8.768;2023-05-23T11:21:52;14.40;;;12.23;;
38264;SDS011;24062;47.480;8.768;2023-05-23T11:24:20;11.93;;;10.85;;
38264;SDS011;24062;47.480;8.768;2023-05-23T11:26:51;14.05;;;11.35;;
38264;SDS011;24062;47.480;8.768;2023-05-23T11:29:21;10.90;;;9.85;;
38264;SDS011;24062;47.480;8.768;2023-05-23T11:31:48;11.68;;;10.52;;
38264;SDS011;24062;47.480;8.768;2023-05-23T11:34:15;13.15;;;11.52;;
38264;SDS011;24062;47.480;8.768;2023-05-23T11:36:43;11.35;;;10.15;;
38264;SDS011;24062;47.480;8.768;2023-05-23T11:39:12;12.68;;;11.02;;
38264;SDS011;24062;47.480;8.768;2023-05-23T11:41:40;11.95;;;10.77;;
38264;SDS011;24062;47.480;8.768;2023-05-23T11:44:11;12.05;;;10.95;;
38264;SDS011;24062;47.480;8.768;2023-05-23T11:46:38;11.68;;;10.57;;
38264;SDS011;24062;47.480;8.768;2023-05-23T11:49:09;12.25;;;10.73;;
38264;SDS011;24062;47.480;8.768;2023-05-23T11:51:36;11.30;;;10.30;;
38264;SDS011;24062;47.480;8.768;2023-05-23T11:54:03;13.27;;;11.55;;
38264;SDS011;24062;47.480;8.768;2023-05-23T11:56:33;16.05;;;12.18;;
38264;SDS011;24062;47.480;8.768;2023-05-23T11:59:05;12.30;;;11.13;;
38264;SDS011;24062;47.480;8.768;2023-05-23T12:01:32;12.88;;;11.50;;
38264;SDS011;24062;47.480;8.768;2023-05-23T12:04:07;12.45;;;11.25;;
38264;SDS011;24062;47.480;8.768;2023-05-23T12:06:37;15.30;;;11.93;;
38264;SDS011;24062;47.480;8.768;2023-05-23T12:09:04;12.52;;;10.65;;
38264;SDS011;24062;47.480;8.768;2023-05-23T12:11:32;13.05;;;11.15;;
38264;SDS011;24062;47.480;8.768;2023-05-23T12:14:00;12.25;;;10.43;;
38264;SDS011;24062;47.480;8.768;2023-05-23T12:16:30;12.15;;;10.40;;
38264;SDS011;24062;47.480;8.768;2023-05-23T12:18:57;14.35;;;12.95;;
38264;SDS011;24062;47.480;8.768;2023-05-23T12:21:26;13.88;;;10.77;;
38264;SDS011;24062;47.480;8.768;2023-05-23T12:24:11;9.00;;;7.20;;
38264;SDS011;24062;47.480;8.768;2023-05-23T12:26:46;7.90;;;5.07;;
38264;SDS011;24062;47.480;8.768;2023-05-23T12:29:13;7.90;;;4.67;;
38264;SDS011;24062;47.480;8.768;2023-05-23T12:31:41;4.93;;;3.60;;
38264;SDS011;24062;47.480;8.768;2023-05-23T12:34:09;4.40;;;3.60;;
38264;SDS011;24062;47.480;8.768;2023-05-23T12:36:36;4.00;;;3.60;;
38264;SDS011;24062;47.480;8.768;2023-05-23T12:39:04;4.90;;;3.23;;
38264;SDS011;24062;47.480;8.768;2023-05-23T12:41:32;4.80;;;3.73;;
38264;SDS011;24062;47.480;8.768;2023-05-23T12:44:00;12.57;;;2.90;;
38264;SDS011;24062;47.480;8.768;2023-05-23T12:46:28;4.90;;;3.90;;
38264;SDS011;24062;47.480;8.768;2023-05-23T12:48:55;4.90;;;3.90;;
38264;SDS011;24062;47.480;8.768;2023-05-23T12:51:22;11.23;;;4.50;;
38264;SDS011;24062;47.480;8.768;2023-05-23T12:53:49;4.87;;;4.47;;
38264;SDS011;24062;47.480;8.768;2023-05-23T12:56:16;4.87;;;4.37;;
38264;SDS011;24062;47.480;8.768;2023-05-23T12:58:43;4.87;;;4.37;;
38264;SDS011;24062;47.480;8.768;2023-05-23T13:01:11;9.33;;;4.40;;
38264;SDS011;24062;47.480;8.768;2023-05-23T13:03:39;4.77;;;3.80;;
38264;SDS011;24062;47.480;8.768;2023-05-23T13:06:06;4.63;;;4.23;;
38264;SDS011;24062;47.480;8.768;2023-05-23T13:08:33;4.53;;;4.13;;
38264;SDS011;24062;47.480;8.768;2023-05-23T13:11:00;5.87;;;5.37;;
38264;SDS011;24062;47.480;8.768;2023-05-23T13:13:27;5.30;;;4.80;;
38264;SDS011;24062;47.480;8.768;2023-05-23T13:15:54;9.37;;;5.90;;
38264;SDS011;24062;47.480;8.768;2023-05-23T13:18:23;6.30;;;5.73;;
38264;SDS011;24062;47.480;8.768;2023-05-23T13:20:50;6.60;;;5.63;;
38264;SDS011;24062;47.480;8.768;2023-05-23T13:23:17;6.20;;;5.60;;
38264;SDS011;24062;47.480;8.768;2023-05-23T13:25:44;6.07;;;5.53;;
38264;SDS011;24062;47.480;8.768;2023-05-23T13:28:10;9.43;;;6.17;;
38264;SDS011;24062;47.480;8.768;2023-05-23T13:30:38;7.60;;;5.90;;
38264;SDS011;24062;47.480;8.768;2023-05-23T13:33:05;6.30;;;5.70;;
38264;SDS011;24062;47.480;8.768;2023-05-23T13:35:33;6.47;;;5.90;;
38264;SDS011;24062;47.480;8.768;2023-05-23T13:38:00;8.43;;;5.30;;
38264;SDS011;24062;47.480;8.768;2023-05-23T13:40:27;5.83;;;5.13;;
38264;SDS011;24062;47.480;8.768;2023-05-23T13:42:54;10.10;;;6.87;;
38264;SDS011;24062;47.480;8.768;2023-05-23T13:45:21;6.03;;;5.53;;
38264;SDS011;24062;47.480;8.768;2023-05-23T13:47:49;8.87;;;6.57;;
38264;SDS011;24062;47.480;8.768;2023-05-23T13:50:16;6.93;;;6.33;;
38264;SDS011;24062;47.480;8.768;2023-05-23T13:52:44;10.07;;;7.10;;
38264;SDS011;24062;47.480;8.768;2023-05-23T13:55:11;9.30;;;7.80;;
38264;SDS011;24062;47.480;8.768;2023-05-23T13:57:38;8.27;;;7.57;;
38264;SDS011;24062;47.480;8.768;2023-05-23T14:00:05;8.30;;;7.47;;
38264;SDS011;24062;47.480;8.768;2023-05-23T14:02:33;16.57;;;7.50;;
38264;SDS011;24062;47.480;8.768;2023-05-23T14:05:00;8.83;;;8.07;;
38264;SDS011;24062;47.480;8.768;2023-05-23T14:07:27;9.40;;;8.50;;
38264;SDS011;24062;47.480;8.768;2023-05-23T14:09:56;9.80;;;7.60;;
38264;SDS011;24062;47.480;8.768;2023-05-23T14:12:23;8.77;;;8.07;;
38264;SDS011;24062;47.480;8.768;2023-05-23T14:14:51;8.45;;;7.63;;
38264;SDS011;24062;47.480;8.768;2023-05-23T14:17:18;9.13;;;8.40;;
38264;SDS011;24062;47.480;8.768;2023-05-23T14:19:45;8.75;;;8.05;;
38264;SDS011;24062;47.480;8.768;2023-05-23T14:22:12;10.50;;;9.40;;
38264;SDS011;24062;47.480;8.768;2023-05-23T14:24:39;10.13;;;9.23;;
38264;SDS011;24062;47.480;8.768;2023-05-23T14:27:07;9.77;;;8.95;;
38264;SDS011;24062;47.480;8.768;2023-05-23T14:29:34;11.55;;;10.23;;
38264;SDS011;24062;47.480;8.768;2023-05-23T14:32:01;11.32;;;10.23;;
38264;SDS011;24062;47.480;8.768;2023-05-23T14:34:28;14.32;;;10.55;;
38264;SDS011;24062;47.480;8.768;2023-05-23T14:36:55;13.73;;;11.45;;
38264;SDS011;24062;47.480;8.768;2023-05-23T14:39:22;18.60;;;11.80;;
38264;SDS011;24062;47.480;8.768;2023-05-23T14:41:50;17.00;;;11.63;;
38264;SDS011;24062;47.480;8.768;2023-05-23T14:44:18;12.77;;;11.45;;
38264;SDS011;24062;47.480;8.768;2023-05-23T14:46:45;12.65;;;11.18;;
38264;SDS011;24062;47.480;8.768;2023-05-23T14:49:13;12.98;;;11.57;;